Emerald 1 — JI3670 — position and weather

sailwx.info

Track history (hours):
 
Tides and Currents Weather Stations Pressure Air Temp Water Temp Dewpoint Dewpoint Depression Visibility Wind Speed Wind Dir Waves Ship Positions

Emerald 1

Last reported at 2018-Apr-04 08:32 UTC. Time now 2018-Jun-25 09:29 UTC.
Position N 34°44' E 134°30'.
Warning: this ship's position is months out of date.

Length 118 m; draft 4.2 m.

Type: Other ship. MMSI: 431301484.

Date/timePositionNaut miles runAvg speedWind from/ knotsBaromVisibWave heightAir tempDewpointWater temp
2018-Apr-04 08:32N 34°44' E 134°30'0 4.9
2018-Apr-04 08:28N 34°43' E 134°31'2 5.2
2018-Apr-04 08:00N 34°43' E 134°33'3 5.2
2018-Apr-04 07:30N 34°42' E 134°36'3 5.1
2018-Apr-04 07:00N 34°41' E 134°39'3 5.0
2018-Apr-04 06:30N 34°40' E 134°42'2 5.0
2018-Apr-04 06:00N 34°39' E 134°45'2 4.9
2018-Apr-04 05:30N 34°39' E 134°48'2 4.7
2018-Apr-04 05:00N 34°38' E 134°51'2 4.4
2018-Apr-04 04:30N 34°38' E 134°53'2 5.0
2018-Apr-04 04:01N 34°37' E 134°56'3 6.6
2018-Apr-04 03:30N 34°38' E 135°00'3 6.3
2018-Apr-04 03:00N 34°36' E 135°04'3 5.7
2018-Apr-04 02:31N 34°37' E 135°07'3 6.1
2018-Apr-04 02:00N 34°37' E 135°11'3 5.8
2018-Apr-04 01:30N 34°37' E 135°14'3 5.6
2018-Apr-04 01:00N 34°39' E 135°17'3 5.3
2018-Apr-04 00:30N 34°41' E 135°19'1 2.2
2018-Apr-04 00:00N 34°41' E 135°20'2 4.8
2018-Apr-03 23:31N 34°43' E 135°18'0 0.5
2018-Apr-03 22:59N 34°43' E 135°18'0 0.0
2018-Apr-03 22:29N 34°43' E 135°18'0 0.0
2018-Apr-03 21:59N 34°43' E 135°18'0 0.0
2018-Apr-03 21:29N 34°43' E 135°18'0 0.0
2018-Apr-03 20:59N 34°43' E 135°18'0 0.0
2018-Apr-03 20:29N 34°43' E 135°18'0 0.0
2018-Apr-03 19:59N 34°43' E 135°18'0 0.0
2018-Apr-03 19:29N 34°43' E 135°18'0 0.0
2018-Apr-03 18:56N 34°43' E 135°18'0 0.0
2018-Apr-03 18:29N 34°43' E 135°18'0 0.0
2018-Apr-03 17:59N 34°43' E 135°18'0 0.0
2018-Apr-03 17:29N 34°43' E 135°18'0 0.0
2018-Apr-03 16:59N 34°43' E 135°18'0 0.0
2018-Apr-03 16:29N 34°43' E 135°18'0 0.0
2018-Apr-03 15:59N 34°43' E 135°18'0 0.0
2018-Apr-03 15:29N 34°43' E 135°18'0 0.0
2018-Apr-03 14:59N 34°43' E 135°18'0 0.0
2018-Apr-03 14:29N 34°43' E 135°18'0 0.0
2018-Apr-03 13:59N 34°43' E 135°18'0 0.0
2018-Apr-03 13:29N 34°43' E 135°18'0 0.0
2018-Apr-03 12:59N 34°43' E 135°18'0 0.0
2018-Apr-03 12:29N 34°43' E 135°18'0 0.0
2018-Apr-03 11:59N 34°43' E 135°18'0 0.0
2018-Apr-03 11:29N 34°43' E 135°18'0 0.0
2018-Apr-03 10:59N 34°43' E 135°18'0 0.0
2018-Apr-03 10:29N 34°43' E 135°18'0 0.0
2018-Apr-03 09:53N 34°43' E 135°18'0 0.0
2018-Apr-03 09:29N 34°43' E 135°18'0 0.0
2018-Apr-03 08:59N 34°43' E 135°18'0 0.0
2018-Apr-03 08:29N 34°43' E 135°18'0 0.0
2018-Apr-03 07:59N 34°43' E 135°18'0 0.0
2018-Apr-03 07:29N 34°43' E 135°18'0 0.0
2018-Apr-03 06:59N 34°43' E 135°18'0 0.0
2018-Apr-03 06:29N 34°43' E 135°18'0 0.0
2018-Apr-03 05:59N 34°43' E 135°18'0 0.0
2018-Apr-03 05:29N 34°43' E 135°18'0 0.0
2018-Apr-03 04:59N 34°43' E 135°18'0 0.0
2018-Apr-03 04:29N 34°43' E 135°18'0 0.0
2018-Apr-03 03:59N 34°43' E 135°18'0 0.0
2018-Apr-03 03:29N 34°43' E 135°18'0 0.0
2018-Apr-03 02:59N 34°43' E 135°18'0 0.0
2018-Apr-03 02:29N 34°43' E 135°18'0 0.0
2018-Apr-03 01:59N 34°43' E 135°18'0 0.0
2018-Apr-03 01:29N 34°43' E 135°18'0 0.0
2018-Apr-03 00:59N 34°43' E 135°18'0 0.0
2018-Apr-03 00:29N 34°43' E 135°18'0 0.0
2018-Apr-02 23:59N 34°43' E 135°18'0 0.0
2018-Apr-02 23:29N 34°43' E 135°18'0 0.0
2018-Apr-02 22:59N 34°43' E 135°18'0 0.0
2018-Apr-02 22:29N 34°43' E 135°18'0 0.0
2018-Apr-02 21:59N 34°43' E 135°18'0 0.0
2018-Apr-02 21:29N 34°43' E 135°18'0 0.0
2018-Apr-02 20:59N 34°43' E 135°18'0 0.0
2018-Apr-02 20:29N 34°43' E 135°18'0 0.0
2018-Apr-02 19:59N 34°43' E 135°18'0 0.0
2018-Apr-02 19:29N 34°43' E 135°18'0 0.0
2018-Apr-02 18:59N 34°43' E 135°18'0 0.0
2018-Apr-02 18:29N 34°43' E 135°18'0 0.0
2018-Apr-02 17:59N 34°43' E 135°18'0 0.0
2018-Apr-02 17:29N 34°43' E 135°18'0 0.0
2018-Apr-02 16:59N 34°43' E 135°18'0 0.0
2018-Apr-02 16:29N 34°43' E 135°18'0 0.0
2018-Apr-02 15:56N 34°43' E 135°18'0 0.0
2018-Apr-02 15:29N 34°43' E 135°18'0 0.0
2018-Apr-02 14:59N 34°43' E 135°18'0 0.0
2018-Apr-02 14:29N 34°43' E 135°18'0 0.0
2018-Apr-02 13:59N 34°43' E 135°18'0 0.0
2018-Apr-02 13:29N 34°43' E 135°18'0 0.0
2018-Apr-02 12:59N 34°43' E 135°18'0 0.0
2018-Apr-02 12:28N 34°43' E 135°18'0 0.0
2018-Apr-02 11:59N 34°43' E 135°18'0 0.0
2018-Apr-02 11:29N 34°43' E 135°18'0 0.0
2018-Apr-02 10:59N 34°43' E 135°18'0 0.0
2018-Apr-02 10:29N 34°43' E 135°18'0 0.0
2018-Apr-02 09:59N 34°43' E 135°18'0 0.0
2018-Apr-02 09:29N 34°43' E 135°18'0 0.0
2018-Apr-02 08:59N 34°43' E 135°18'0 0.0
2018-Apr-02 08:29N 34°43' E 135°18'0 0.0
2018-Apr-02 07:59N 34°43' E 135°18'0 0.0
2018-Apr-02 07:29N 34°43' E 135°18'0 0.0
2018-Apr-02 06:59N 34°43' E 135°18'0 0.0
2018-Apr-02 06:29N 34°43' E 135°18'0 0.0
2018-Apr-02 05:59N 34°43' E 135°18'0 0.0
2018-Apr-02 05:29N 34°43' E 135°18'0 0.0
2018-Apr-02 04:58N 34°43' E 135°18'0 0.0
2018-Apr-02 04:29N 34°43' E 135°18'0 0.0
2018-Apr-02 03:59N 34°43' E 135°18'0 0.0
2018-Apr-02 03:29N 34°43' E 135°18'0 0.0
2018-Apr-02 02:58N 34°43' E 135°18'0 0.0
2018-Apr-02 02:28N 34°43' E 135°18'0 0.0
2018-Apr-02 01:59N 34°43' E 135°18'0 0.0
2018-Apr-02 01:29N 34°43' E 135°18'0 0.0
2018-Apr-02 00:59N 34°43' E 135°18'0 0.0
2018-Apr-02 00:29N 34°43' E 135°18'0 0.0
2018-Apr-01 23:59N 34°43' E 135°18'0 0.0
2018-Apr-01 23:28N 34°43' E 135°18'0 0.0
2018-Apr-01 22:59N 34°43' E 135°18'0 0.0
2018-Apr-01 22:29N 34°43' E 135°18'0 0.0
2018-Apr-01 21:59N 34°43' E 135°18'0 0.0
2018-Apr-01 21:28N 34°43' E 135°18'0 0.0
2018-Apr-01 20:55N 34°43' E 135°18'0 0.0
2018-Apr-01 20:28N 34°43' E 135°18'0 0.0
2018-Apr-01 19:58N 34°43' E 135°18'0 0.0
2018-Apr-01 19:28N 34°43' E 135°18'0 0.0
2018-Apr-01 18:58N 34°43' E 135°18'0 0.0
2018-Apr-01 18:28N 34°43' E 135°18'0 0.0
2018-Apr-01 17:58N 34°43' E 135°18'0 0.0
2018-Apr-01 17:29N 34°43' E 135°18'0 0.0
2018-Apr-01 16:52N 34°43' E 135°18'0 0.0
2018-Apr-01 16:28N 34°43' E 135°18'0 0.0
2018-Apr-01 15:55N 34°43' E 135°18'0 0.0
2018-Apr-01 15:28N 34°43' E 135°18'0 0.0
2018-Apr-01 14:59N 34°43' E 135°18'0 0.0
2018-Apr-01 14:28N 34°43' E 135°18'0 0.0
2018-Apr-01 13:58N 34°43' E 135°18'0 0.0
2018-Apr-01 13:28N 34°43' E 135°18'0 0.0
2018-Apr-01 12:55N 34°43' E 135°18'0 0.0
2018-Apr-01 12:28N 34°43' E 135°18'0 0.0
2018-Apr-01 11:58N 34°43' E 135°18'0 0.0
2018-Apr-01 11:28N 34°43' E 135°18'0 0.0
2018-Apr-01 10:58N 34°43' E 135°18'0 0.0
2018-Apr-01 10:28N 34°43' E 135°18'0 0.0
2018-Apr-01 09:58N 34°43' E 135°18'0 0.0
2018-Apr-01 09:28N 34°43' E 135°18'0 0.0
2018-Apr-01 08:58N 34°43' E 135°18'0 0.0
2018-Apr-01 08:28N 34°43' E 135°18'0 0.0
2018-Apr-01 07:58N 34°43' E 135°18'0 0.0
2018-Apr-01 07:28N 34°43' E 135°18'0 0.0
2018-Apr-01 06:58N 34°43' E 135°18'0 0.0
2018-Apr-01 06:28N 34°43' E 135°18'0 0.0
2018-Apr-01 05:58N 34°43' E 135°18'0 0.0
2018-Apr-01 05:25N 34°43' E 135°18'0 0.0
2018-Apr-01 04:58N 34°43' E 135°18'0 0.0
2018-Apr-01 04:28N 34°43' E 135°18'0 0.0
2018-Apr-01 03:58N 34°43' E 135°18'0 0.0
2018-Apr-01 03:29N 34°43' E 135°18'0 0.0
2018-Apr-01 02:58N 34°43' E 135°18'0 0.0
2018-Apr-01 02:28N 34°43' E 135°18'0 0.0
2018-Apr-01 01:58N 34°43' E 135°18'0 0.0
2018-Apr-01 01:28N 34°43' E 135°18'0 0.0
2018-Apr-01 00:58N 34°43' E 135°18'0 0.0
2018-Apr-01 00:28N 34°43' E 135°18'0 0.0
2018-Mar-31 23:58N 34°43' E 135°18'0 0.0
2018-Mar-31 23:28N 34°43' E 135°18'0 0.0
2018-Mar-31 22:58N 34°43' E 135°18'0 0.0
2018-Mar-31 22:28N 34°43' E 135°18'0 0.0
2018-Mar-31 21:58N 34°43' E 135°18'0 0.0
2018-Mar-31 21:28N 34°43' E 135°18'0 0.0
2018-Mar-31 20:58N 34°43' E 135°18'0 0.0
2018-Mar-31 20:28N 34°43' E 135°18'0 0.0
2018-Mar-31 19:58N 34°43' E 135°18'0 0.0
2018-Mar-31 19:28N 34°43' E 135°18'0 0.0
2018-Mar-31 18:58N 34°43' E 135°18'0 0.0
2018-Mar-31 18:28N 34°43' E 135°18'0 0.0
2018-Mar-31 17:58N 34°43' E 135°18'0 0.0
2018-Mar-31 17:28N 34°43' E 135°18'0 0.0
2018-Mar-31 16:58N 34°43' E 135°18'0 0.0
2018-Mar-31 16:28N 34°43' E 135°18'0 0.0
2018-Mar-31 15:58N 34°43' E 135°18'0 0.0
2018-Mar-31 15:28N 34°43' E 135°18'0 0.0
2018-Mar-31 14:58N 34°43' E 135°18'0 0.0
2018-Mar-31 14:28N 34°43' E 135°18'0 0.0
2018-Mar-31 13:58N 34°43' E 135°18'0 0.0
2018-Mar-31 13:28N 34°43' E 135°18'0 0.0
2018-Mar-31 12:55N 34°43' E 135°18'0 0.0
2018-Mar-31 12:28N 34°43' E 135°18'0 0.0
2018-Mar-31 11:58N 34°43' E 135°18'0 0.0
2018-Mar-31 11:28N 34°43' E 135°18'0 0.0
2018-Mar-31 10:58N 34°43' E 135°18'0 0.0
2018-Mar-31 10:28N 34°43' E 135°18'0 0.0
2018-Mar-31 09:58N 34°43' E 135°18'0 0.0
2018-Mar-31 09:28N 34°43' E 135°18'0 0.0
2018-Mar-31 08:58N 34°43' E 135°18'0 0.0
2018-Mar-31 08:28N 34°43' E 135°18'0 0.0
2018-Mar-31 07:58N 34°43' E 135°18'0 0.0
2018-Mar-31 07:28N 34°43' E 135°18'0 0.0
2018-Mar-31 06:58N 34°43' E 135°18'0 0.0
2018-Mar-31 06:28N 34°43' E 135°18'0 0.0
2018-Mar-31 05:58N 34°43' E 135°18'0 0.0
2018-Mar-31 05:28N 34°43' E 135°18'0 0.0
2018-Mar-31 04:58N 34°43' E 135°18'0 0.0
2018-Mar-31 04:28N 34°43' E 135°18'0 0.0
2018-Mar-31 03:58N 34°43' E 135°18'0 0.0
2018-Mar-31 03:28N 34°43' E 135°18'0 0.0
2018-Mar-31 02:58N 34°43' E 135°18'0 0.0
2018-Mar-31 02:28N 34°43' E 135°18'0 0.0
2018-Mar-31 01:55N 34°43' E 135°18'0 0.0
2018-Mar-31 01:28N 34°43' E 135°18'0 0.0
2018-Mar-31 00:58N 34°43' E 135°18'0 0.0
2018-Mar-31 00:28N 34°43' E 135°18'0 0.0
2018-Mar-30 23:58N 34°43' E 135°18'0 0.0
2018-Mar-30 23:28N 34°43' E 135°18'0 0.0
2018-Mar-30 22:58N 34°43' E 135°18'0 0.0
2018-Mar-30 22:28N 34°43' E 135°18'0 0.0
2018-Mar-30 21:58N 34°43' E 135°18'0 0.0
2018-Mar-30 21:28N 34°43' E 135°18'0 0.0
2018-Mar-30 20:58N 34°43' E 135°18'0 0.0
2018-Mar-30 20:28N 34°43' E 135°18'0 0.0
2018-Mar-30 19:58N 34°43' E 135°18'0 0.0
2018-Mar-30 19:28N 34°43' E 135°18'0 0.0
2018-Mar-30 18:58N 34°43' E 135°18'0 0.0
2018-Mar-30 18:28N 34°43' E 135°18'0 0.0
2018-Mar-30 17:58N 34°43' E 135°18'0 0.0
2018-Mar-30 17:28N 34°43' E 135°18'0 0.0
2018-Mar-30 16:58N 34°43' E 135°18'0 0.0
2018-Mar-30 16:28N 34°43' E 135°18'0 0.0
2018-Mar-30 15:58N 34°43' E 135°18'0 0.0
2018-Mar-30 15:28N 34°43' E 135°18'0 0.0
2018-Mar-30 14:58N 34°43' E 135°18'0 0.0
2018-Mar-30 14:28N 34°43' E 135°18'0 0.0
2018-Mar-30 13:55N 34°43' E 135°18'0 0.0
2018-Mar-30 13:28N 34°43' E 135°18'0 0.0
2018-Mar-30 12:58N 34°43' E 135°18'0 0.0
2018-Mar-30 12:28N 34°43' E 135°18'0 0.0
2018-Mar-30 11:58N 34°43' E 135°18'0 0.0
2018-Mar-30 11:28N 34°43' E 135°18'0 0.0
2018-Mar-30 10:58N 34°43' E 135°18'0 0.0
2018-Mar-30 10:28N 34°43' E 135°18'0 0.0
2018-Mar-30 09:58N 34°43' E 135°18'0 0.0
2018-Mar-30 09:28N 34°43' E 135°18'0 0.0
2018-Mar-30 08:58N 34°43' E 135°18'0 0.0
2018-Mar-30 08:28N 34°43' E 135°18'0 0.0
2018-Mar-30 07:58N 34°43' E 135°18'0 0.0
2018-Mar-30 07:28N 34°43' E 135°18'0 0.0
2018-Mar-30 06:58N 34°43' E 135°18'0 0.0
2018-Mar-30 06:28N 34°43' E 135°18'0 0.0
2018-Mar-30 05:58N 34°43' E 135°18'0 0.0
2018-Mar-30 05:28N 34°43' E 135°18'0 0.0
2018-Mar-30 04:58N 34°43' E 135°18'0 0.0
2018-Mar-30 04:28N 34°43' E 135°18'0 0.0
2018-Mar-30 03:55N 34°43' E 135°18'0 0.0
2018-Mar-30 03:28N 34°43' E 135°18'0 0.0
2018-Mar-30 02:58N 34°43' E 135°18'0 0.0
2018-Mar-30 02:28N 34°43' E 135°18'0 0.0
2018-Mar-30 01:58N 34°43' E 135°18'0 0.0
2018-Mar-30 01:28N 34°43' E 135°18'0 0.0
2018-Mar-30 00:58N 34°43' E 135°18'0 0.0
2018-Mar-30 00:28N 34°43' E 135°18'0 0.0
2018-Mar-29 23:58N 34°43' E 135°18'0 0.0
2018-Mar-29 23:28N 34°43' E 135°18'0 0.0
2018-Mar-29 22:58N 34°43' E 135°18'0 0.0
2018-Mar-29 22:28N 34°43' E 135°18'0 0.0
2018-Mar-29 21:58N 34°43' E 135°18'0 0.0
2018-Mar-29 21:28N 34°43' E 135°18'0 0.0
2018-Mar-29 20:58N 34°43' E 135°18'0 0.0
2018-Mar-29 20:28N 34°43' E 135°18'0 0.0
2018-Mar-29 19:58N 34°43' E 135°18'0 0.0
2018-Mar-29 19:28N 34°43' E 135°18'0 0.0
2018-Mar-29 18:58N 34°43' E 135°18'0 0.0
2018-Mar-29 18:28N 34°43' E 135°18'0 0.0
2018-Mar-29 17:58N 34°43' E 135°18'0 0.0
2018-Mar-29 17:28N 34°43' E 135°18'0 0.0
2018-Mar-29 16:58N 34°43' E 135°18'0 0.0
2018-Mar-29 16:25N 34°43' E 135°18'0 0.0
2018-Mar-29 15:58N 34°43' E 135°18'0 0.0
2018-Mar-29 15:28N 34°43' E 135°18'0 0.0
2018-Mar-29 14:58N 34°43' E 135°18'0 0.0
2018-Mar-29 14:28N 34°43' E 135°18'0 0.0
2018-Mar-29 13:58N 34°43' E 135°18'0 0.0
2018-Mar-29 13:28N 34°43' E 135°18'0 0.0
2018-Mar-29 12:58N 34°43' E 135°18'0 0.0
2018-Mar-29 12:25N 34°43' E 135°18'0 0.0
2018-Mar-29 11:58N 34°43' E 135°18'0 0.0
2018-Mar-29 11:28N 34°43' E 135°18'0 0.0
2018-Mar-29 10:58N 34°43' E 135°18'0 0.0
2018-Mar-29 10:28N 34°43' E 135°18'0 0.0
2018-Mar-29 09:58N 34°43' E 135°18'0 0.0
2018-Mar-29 09:28N 34°43' E 135°18'0 0.0
2018-Mar-29 08:58N 34°43' E 135°18'0 0.0
2018-Mar-29 08:28N 34°43' E 135°18'0 0.0
2018-Mar-29 07:58N 34°43' E 135°18'0 0.0
2018-Mar-29 07:28N 34°43' E 135°18'0 0.0
2018-Mar-29 06:58N 34°43' E 135°18'0 0.0
2018-Mar-29 06:28N 34°43' E 135°18'0 0.0
2018-Mar-29 05:58N 34°43' E 135°18'0 0.0
2018-Mar-29 05:28N 34°43' E 135°18'0 0.0
2018-Mar-29 04:58N 34°43' E 135°18'0 0.0
2018-Mar-29 04:28N 34°43' E 135°18'0 0.0
2018-Mar-29 03:58N 34°43' E 135°18'0 0.0
2018-Mar-29 03:28N 34°43' E 135°18'0 0.0
2018-Mar-29 02:58N 34°43' E 135°18'0 0.0
2018-Mar-29 02:28N 34°43' E 135°18'0 0.0
2018-Mar-29 01:58N 34°43' E 135°18'0 0.0
2018-Mar-29 01:28N 34°43' E 135°18'0 0.0
2018-Mar-29 00:58N 34°43' E 135°18'0 0.0
2018-Mar-29 00:28N 34°43' E 135°18'0 0.0
2018-Mar-28 23:58N 34°43' E 135°18'0 0.0
2018-Mar-28 23:28N 34°43' E 135°18'0 0.0
2018-Mar-28 22:58N 34°43' E 135°18'0 0.0
2018-Mar-28 22:28N 34°43' E 135°18'0 0.0
2018-Mar-28 21:58N 34°43' E 135°18'0 0.0
2018-Mar-28 21:28N 34°43' E 135°18'0 0.0
2018-Mar-28 20:55N 34°43' E 135°18'0 0.0
2018-Mar-28 20:28N 34°43' E 135°18'0 0.0
2018-Mar-28 19:58N 34°43' E 135°18'0 0.0
2018-Mar-28 19:28N 34°43' E 135°18'0 0.0
2018-Mar-28 18:58N 34°43' E 135°18'0 0.0
2018-Mar-28 18:28N 34°43' E 135°18'0 0.0
2018-Mar-28 17:58N 34°43' E 135°18'0 0.0
2018-Mar-28 17:28N 34°43' E 135°18'0 0.0
2018-Mar-28 16:58N 34°43' E 135°18'0 0.0
2018-Mar-28 16:28N 34°43' E 135°18'0 0.0
2018-Mar-28 15:58N 34°43' E 135°18'0 0.0
2018-Mar-28 15:28N 34°43' E 135°18'0 0.0
2018-Mar-28 14:58N 34°43' E 135°18'0 0.0
2018-Mar-28 14:28N 34°43' E 135°18'0 0.0
2018-Mar-28 13:58N 34°43' E 135°18'0 0.0
2018-Mar-28 13:28N 34°43' E 135°18'0 0.0
2018-Mar-28 12:58N 34°43' E 135°18'0 0.0
2018-Mar-28 12:25N 34°43' E 135°18'0 0.0
2018-Mar-28 11:58N 34°43' E 135°18'0 0.0
2018-Mar-28 11:28N 34°43' E 135°18'0 0.0
2018-Mar-28 10:58N 34°43' E 135°18'0 0.0
2018-Mar-28 10:28N 34°43' E 135°18'0 0.0
2018-Mar-28 09:58N 34°43' E 135°18'0 0.0
2018-Mar-28 09:28N 34°43' E 135°18'0 0.0
2018-Mar-28 08:58N 34°43' E 135°18'0 0.0
2018-Mar-28 08:25N 34°43' E 135°18'0 0.0
2018-Mar-28 07:58N 34°43' E 135°18'0 0.0
2018-Mar-28 07:28N 34°43' E 135°18'0 0.0
2018-Mar-28 06:58N 34°43' E 135°18'0 0.0
2018-Mar-28 06:28N 34°43' E 135°18'0 0.0
2018-Mar-28 05:58N 34°43' E 135°18'0 0.0
2018-Mar-28 05:28N 34°43' E 135°18'0 0.0
2018-Mar-28 04:58N 34°43' E 135°18'0 0.0
2018-Mar-28 04:28N 34°43' E 135°18'0 0.0
2018-Mar-28 03:55N 34°43' E 135°18'0 0.0
2018-Mar-28 03:28N 34°43' E 135°18'0 0.0
2018-Mar-28 02:58N 34°43' E 135°18'0 0.0
2018-Mar-28 02:28N 34°43' E 135°18'0 0.0
2018-Mar-28 01:58N 34°43' E 135°18'0 0.0
2018-Mar-28 01:25N 34°43' E 135°18'0 0.0
2018-Mar-28 00:55N 34°43' E 135°18'0 0.0
2018-Mar-28 00:28N 34°43' E 135°18'0 0.0
2018-Mar-27 23:58N 34°43' E 135°18'0 0.0
2018-Mar-27 23:28N 34°43' E 135°18'0 0.0
2018-Mar-27 22:58N 34°43' E 135°18'0 0.0
2018-Mar-27 22:28N 34°43' E 135°18'0 0.0
2018-Mar-27 21:58N 34°43' E 135°18'0 0.0
2018-Mar-27 21:28N 34°43' E 135°18'0 0.0
2018-Mar-27 20:58N 34°43' E 135°18'0 0.0
2018-Mar-27 20:28N 34°43' E 135°18'0 0.0
2018-Mar-27 19:58N 34°43' E 135°18'0 0.0
2018-Mar-27 19:28N 34°43' E 135°18'0 0.0
2018-Mar-27 18:58N 34°43' E 135°18'0 0.0
2018-Mar-27 18:28N 34°43' E 135°18'0 0.0
2018-Mar-27 17:58N 34°43' E 135°18'0 0.0
2018-Mar-27 17:28N 34°43' E 135°18'0 0.0
2018-Mar-27 16:58N 34°43' E 135°18'0 0.0
2018-Mar-27 16:28N 34°43' E 135°18'0 0.0
2018-Mar-27 15:58N 34°43' E 135°18'0 0.0
2018-Mar-27 15:28N 34°43' E 135°18'0 0.0
2018-Mar-27 14:58N 34°43' E 135°18'0 0.0
2018-Mar-27 14:28N 34°43' E 135°18'0 0.0
2018-Mar-27 13:58N 34°43' E 135°18'0 0.0
2018-Mar-27 13:28N 34°43' E 135°18'0 0.0
2018-Mar-27 12:58N 34°43' E 135°18'0 0.0
2018-Mar-27 12:28N 34°43' E 135°18'0 0.0
2018-Mar-27 11:58N 34°43' E 135°18'0 0.0
2018-Mar-27 11:28N 34°43' E 135°18'0 0.0
2018-Mar-27 10:58N 34°43' E 135°18'0 0.0
2018-Mar-27 10:28N 34°43' E 135°18'0 0.0
2018-Mar-27 09:55N 34°43' E 135°18'0 0.0
2018-Mar-27 09:28N 34°43' E 135°18'0 0.0
2018-Mar-27 08:58N 34°43' E 135°18'0 0.0
2018-Mar-27 08:28N 34°43' E 135°18'0 0.0
2018-Mar-27 07:58N 34°43' E 135°18'0 0.0
2018-Mar-27 07:28N 34°43' E 135°18'0 0.0
2018-Mar-27 06:58N 34°43' E 135°18'0 0.0
2018-Mar-27 06:25N 34°43' E 135°18'0 0.0
2018-Mar-27 05:58N 34°43' E 135°18'0 0.0
2018-Mar-27 05:28N 34°43' E 135°18'0 0.0
2018-Mar-27 04:58N 34°43' E 135°18'0 0.0
2018-Mar-27 04:28N 34°43' E 135°18'0 0.0
2018-Mar-27 03:58N 34°43' E 135°18'0 0.0
2018-Mar-27 03:28N 34°43' E 135°18'0 0.0
2018-Mar-27 02:58N 34°43' E 135°18'0 0.0
2018-Mar-27 02:28N 34°43' E 135°18'0 0.0
2018-Mar-27 01:58N 34°43' E 135°18'0 0.0
2018-Mar-27 01:28N 34°43' E 135°18'0 0.0
2018-Mar-27 00:58N 34°43' E 135°18'0 0.0
2018-Mar-27 00:28N 34°43' E 135°18'0 0.0
2018-Mar-26 23:58N 34°43' E 135°18'0 0.0
2018-Mar-26 23:28N 34°43' E 135°18'0 0.0
2018-Mar-26 22:58N 34°43' E 135°18'0 0.0
2018-Mar-26 22:28N 34°43' E 135°18'0 0.0
2018-Mar-26 21:58N 34°43' E 135°18'0 0.0
2018-Mar-26 21:28N 34°43' E 135°18'0 0.0
2018-Mar-26 20:58N 34°43' E 135°18'0 0.0
2018-Mar-26 20:28N 34°43' E 135°18'0 0.0
2018-Mar-26 19:58N 34°43' E 135°18'0 0.0
2018-Mar-26 19:28N 34°43' E 135°18'0 0.0
2018-Mar-26 18:58N 34°43' E 135°18'0 0.0
2018-Mar-26 18:28N 34°43' E 135°18'0 0.0
2018-Mar-26 17:58N 34°43' E 135°18'0 0.0
2018-Mar-26 17:28N 34°43' E 135°18'0 0.0
2018-Mar-26 16:58N 34°43' E 135°18'0 0.0
2018-Mar-26 16:28N 34°43' E 135°18'0 0.0
2018-Mar-26 15:58N 34°43' E 135°18'0 0.0
2018-Mar-26 15:28N 34°43' E 135°18'0 0.0
2018-Mar-26 14:58N 34°43' E 135°18'0 0.0
2018-Mar-26 14:28N 34°43' E 135°18'0 0.0
2018-Mar-26 13:58N 34°43' E 135°18'0 0.0
2018-Mar-26 13:28N 34°43' E 135°18'0 0.0
2018-Mar-26 12:58N 34°43' E 135°18'0 0.0
2018-Mar-26 12:28N 34°43' E 135°18'0 0.0
2018-Mar-26 11:58N 34°43' E 135°18'0 0.0
2018-Mar-26 11:28N 34°43' E 135°18'0 0.0
2018-Mar-26 10:58N 34°43' E 135°18'0 0.0
2018-Mar-26 10:28N 34°43' E 135°18'0 0.0
2018-Mar-26 09:58N 34°43' E 135°18'0 0.0
2018-Mar-26 09:28N 34°43' E 135°18'0 0.0
2018-Mar-26 08:58N 34°43' E 135°18'0 0.0
2018-Mar-26 08:28N 34°43' E 135°18'0 0.0
2018-Mar-26 07:58N 34°43' E 135°18'0 0.0
2018-Mar-26 07:28N 34°43' E 135°18'0 0.0
2018-Mar-26 06:58N 34°43' E 135°18'0 0.0
2018-Mar-26 06:28N 34°43' E 135°18'0 0.0
2018-Mar-26 05:58N 34°43' E 135°18'0 0.0
2018-Mar-26 05:28N 34°43' E 135°18'0 0.0
2018-Mar-26 04:58N 34°43' E 135°18'0 0.0
2018-Mar-26 04:28N 34°43' E 135°18'0 0.0
2018-Mar-26 03:58N 34°43' E 135°18'0 0.0
2018-Mar-26 03:28N 34°43' E 135°18'0 0.0
2018-Mar-26 02:58N 34°43' E 135°18'0 0.0
2018-Mar-26 02:28N 34°43' E 135°18'0 0.0
2018-Mar-26 01:58N 34°43' E 135°18'0 0.0
2018-Mar-26 01:28N 34°43' E 135°18'0 0.0
2018-Mar-26 00:55N 34°43' E 135°18'0 0.0
2018-Mar-26 00:28N 34°43' E 135°18'0 0.0
2018-Mar-25 23:58N 34°43' E 135°18'0 0.0
2018-Mar-25 23:28N 34°43' E 135°18'0 0.0
2018-Mar-25 22:58N 34°43' E 135°18'0 0.0
2018-Mar-25 22:28N 34°43' E 135°18'0 0.0
2018-Mar-25 21:58N 34°43' E 135°18'0 0.0
2018-Mar-25 21:28N 34°43' E 135°18'0 0.0
2018-Mar-25 20:58N 34°43' E 135°18'0 0.0
2018-Mar-25 20:28N 34°43' E 135°18'0 0.0
2018-Mar-25 19:58N 34°43' E 135°18'0 0.0
2018-Mar-25 19:28N 34°43' E 135°18'0 0.0
2018-Mar-25 18:58N 34°43' E 135°18'0 0.0
2018-Mar-25 18:28N 34°43' E 135°18'0 0.0
2018-Mar-25 17:58N 34°43' E 135°18'0 0.0
2018-Mar-25 17:28N 34°43' E 135°18'0 0.0
2018-Mar-25 16:58N 34°43' E 135°18'0 0.0
2018-Mar-25 16:28N 34°43' E 135°18'0 0.0
2018-Mar-25 15:58N 34°43' E 135°18'0 0.0
2018-Mar-25 15:28N 34°43' E 135°18'0 0.0
2018-Mar-25 14:58N 34°43' E 135°18'0 0.0
2018-Mar-25 14:28N 34°43' E 135°18'0 0.0
2018-Mar-25 13:58N 34°43' E 135°18'0 0.0
2018-Mar-25 13:28N 34°43' E 135°18'0 0.0
2018-Mar-25 12:58N 34°43' E 135°18'0 0.0
2018-Mar-25 12:28N 34°43' E 135°18'0 0.0
2018-Mar-25 11:58N 34°43' E 135°18'0 0.0
2018-Mar-25 11:28N 34°43' E 135°18'0 0.0
2018-Mar-25 10:58N 34°43' E 135°18'0 0.0
2018-Mar-25 10:28N 34°43' E 135°18'0 0.0
2018-Mar-25 09:58N 34°43' E 135°18'0 0.0
2018-Mar-25 09:28N 34°43' E 135°18'0 0.0
2018-Mar-25 08:58N 34°43' E 135°18'  
Track history (hours):
 
Tides and Currents Weather Stations Pressure Air Temp Water Temp Dewpoint Dewpoint Depression Visibility Wind Speed Wind Dir Waves Ship Positions

Emerald 1

Last reported at 2018-Apr-04 08:32 UTC. Time now 2018-Jun-25 09:29 UTC.
Position N 34°44' E 134°30'.
Warning: this ship's position is months out of date.

Length 118 m; draft 4.2 m.

Type: Other ship. MMSI: 431301484.

Date/timePositionNaut miles runAvg speedWind from/ knotsBaromVisibWave heightAir tempDewpointWater temp
2018-Apr-04 08:32N 34°44' E 134°30'0 4.9
2018-Apr-04 08:28N 34°43' E 134°31'2 5.2
2018-Apr-04 08:00N 34°43' E 134°33'3 5.2
2018-Apr-04 07:30N 34°42' E 134°36'3 5.1
2018-Apr-04 07:00N 34°41' E 134°39'3 5.0
2018-Apr-04 06:30N 34°40' E 134°42'2 5.0
2018-Apr-04 06:00N 34°39' E 134°45'2 4.9
2018-Apr-04 05:30N 34°39' E 134°48'2 4.7
2018-Apr-04 05:00N 34°38' E 134°51'2 4.4
2018-Apr-04 04:30N 34°38' E 134°53'2 5.0
2018-Apr-04 04:01N 34°37' E 134°56'3 6.6
2018-Apr-04 03:30N 34°38' E 135°00'3 6.3
2018-Apr-04 03:00N 34°36' E 135°04'3 5.7
2018-Apr-04 02:31N 34°37' E 135°07'3 6.1
2018-Apr-04 02:00N 34°37' E 135°11'3 5.8
2018-Apr-04 01:30N 34°37' E 135°14'3 5.6
2018-Apr-04 01:00N 34°39' E 135°17'3 5.3
2018-Apr-04 00:30N 34°41' E 135°19'1 2.2
2018-Apr-04 00:00N 34°41' E 135°20'2 4.8
2018-Apr-03 23:31N 34°43' E 135°18'0 0.5
2018-Apr-03 22:59N 34°43' E 135°18'0 0.0
2018-Apr-03 22:29N 34°43' E 135°18'0 0.0
2018-Apr-03 21:59N 34°43' E 135°18'0 0.0
2018-Apr-03 21:29N 34°43' E 135°18'0 0.0
2018-Apr-03 20:59N 34°43' E 135°18'0 0.0
2018-Apr-03 20:29N 34°43' E 135°18'0 0.0
2018-Apr-03 19:59N 34°43' E 135°18'0 0.0
2018-Apr-03 19:29N 34°43' E 135°18'0 0.0
2018-Apr-03 18:56N 34°43' E 135°18'0 0.0
2018-Apr-03 18:29N 34°43' E 135°18'0 0.0
2018-Apr-03 17:59N 34°43' E 135°18'0 0.0
2018-Apr-03 17:29N 34°43' E 135°18'0 0.0
2018-Apr-03 16:59N 34°43' E 135°18'0 0.0
2018-Apr-03 16:29N 34°43' E 135°18'0 0.0
2018-Apr-03 15:59N 34°43' E 135°18'0 0.0
2018-Apr-03 15:29N 34°43' E 135°18'0 0.0
2018-Apr-03 14:59N 34°43' E 135°18'0 0.0
2018-Apr-03 14:29N 34°43' E 135°18'0 0.0
2018-Apr-03 13:59N 34°43' E 135°18'0 0.0
2018-Apr-03 13:29N 34°43' E 135°18'0 0.0
2018-Apr-03 12:59N 34°43' E 135°18'0 0.0
2018-Apr-03 12:29N 34°43' E 135°18'0 0.0
2018-Apr-03 11:59N 34°43' E 135°18'0 0.0
2018-Apr-03 11:29N 34°43' E 135°18'0 0.0
2018-Apr-03 10:59N 34°43' E 135°18'0 0.0
2018-Apr-03 10:29N 34°43' E 135°18'0 0.0
2018-Apr-03 09:53N 34°43' E 135°18'0 0.0
2018-Apr-03 09:29N 34°43' E 135°18'0 0.0
2018-Apr-03 08:59N 34°43' E 135°18'0 0.0
2018-Apr-03 08:29N 34°43' E 135°18'0 0.0
2018-Apr-03 07:59N 34°43' E 135°18'0 0.0
2018-Apr-03 07:29N 34°43' E 135°18'0 0.0
2018-Apr-03 06:59N 34°43' E 135°18'0 0.0
2018-Apr-03 06:29N 34°43' E 135°18'0 0.0
2018-Apr-03 05:59N 34°43' E 135°18'0 0.0
2018-Apr-03 05:29N 34°43' E 135°18'0 0.0
2018-Apr-03 04:59N 34°43' E 135°18'0 0.0
2018-Apr-03 04:29N 34°43' E 135°18'0 0.0
2018-Apr-03 03:59N 34°43' E 135°18'0 0.0
2018-Apr-03 03:29N 34°43' E 135°18'0 0.0
2018-Apr-03 02:59N 34°43' E 135°18'0 0.0
2018-Apr-03 02:29N 34°43' E 135°18'0 0.0
2018-Apr-03 01:59N 34°43' E 135°18'0 0.0
2018-Apr-03 01:29N 34°43' E 135°18'0 0.0
2018-Apr-03 00:59N 34°43' E 135°18'0 0.0
2018-Apr-03 00:29N 34°43' E 135°18'0 0.0
2018-Apr-02 23:59N 34°43' E 135°18'0 0.0
2018-Apr-02 23:29N 34°43' E 135°18'0 0.0
2018-Apr-02 22:59N 34°43' E 135°18'0 0.0
2018-Apr-02 22:29N 34°43' E 135°18'0 0.0
2018-Apr-02 21:59N 34°43' E 135°18'0 0.0
2018-Apr-02 21:29N 34°43' E 135°18'0 0.0
2018-Apr-02 20:59N 34°43' E 135°18'0 0.0
2018-Apr-02 20:29N 34°43' E 135°18'0 0.0
2018-Apr-02 19:59N 34°43' E 135°18'0 0.0
2018-Apr-02 19:29N 34°43' E 135°18'0 0.0
2018-Apr-02 18:59N 34°43' E 135°18'0 0.0
2018-Apr-02 18:29N 34°43' E 135°18'0 0.0
2018-Apr-02 17:59N 34°43' E 135°18'0 0.0
2018-Apr-02 17:29N 34°43' E 135°18'0 0.0
2018-Apr-02 16:59N 34°43' E 135°18'0 0.0
2018-Apr-02 16:29N 34°43' E 135°18'0 0.0
2018-Apr-02 15:56N 34°43' E 135°18'0 0.0
2018-Apr-02 15:29N 34°43' E 135°18'0 0.0
2018-Apr-02 14:59N 34°43' E 135°18'0 0.0
2018-Apr-02 14:29N 34°43' E 135°18'0 0.0
2018-Apr-02 13:59N 34°43' E 135°18'0 0.0
2018-Apr-02 13:29N 34°43' E 135°18'0 0.0
2018-Apr-02 12:59N 34°43' E 135°18'0 0.0
2018-Apr-02 12:28N 34°43' E 135°18'0 0.0
2018-Apr-02 11:59N 34°43' E 135°18'0 0.0
2018-Apr-02 11:29N 34°43' E 135°18'0 0.0
2018-Apr-02 10:59N 34°43' E 135°18'0 0.0
2018-Apr-02 10:29N 34°43' E 135°18'0 0.0
2018-Apr-02 09:59N 34°43' E 135°18'0 0.0
2018-Apr-02 09:29N 34°43' E 135°18'0 0.0
2018-Apr-02 08:59N 34°43' E 135°18'0 0.0
2018-Apr-02 08:29N 34°43' E 135°18'0 0.0
2018-Apr-02 07:59N 34°43' E 135°18'0 0.0
2018-Apr-02 07:29N 34°43' E 135°18'0 0.0
2018-Apr-02 06:59N 34°43' E 135°18'0 0.0
2018-Apr-02 06:29N 34°43' E 135°18'0 0.0
2018-Apr-02 05:59N 34°43' E 135°18'0 0.0
2018-Apr-02 05:29N 34°43' E 135°18'0 0.0
2018-Apr-02 04:58N 34°43' E 135°18'0 0.0
2018-Apr-02 04:29N 34°43' E 135°18'0 0.0
2018-Apr-02 03:59N 34°43' E 135°18'0 0.0
2018-Apr-02 03:29N 34°43' E 135°18'0 0.0
2018-Apr-02 02:58N 34°43' E 135°18'0 0.0
2018-Apr-02 02:28N 34°43' E 135°18'0 0.0
2018-Apr-02 01:59N 34°43' E 135°18'0 0.0
2018-Apr-02 01:29N 34°43' E 135°18'0 0.0
2018-Apr-02 00:59N 34°43' E 135°18'0 0.0
2018-Apr-02 00:29N 34°43' E 135°18'0 0.0
2018-Apr-01 23:59N 34°43' E 135°18'0 0.0
2018-Apr-01 23:28N 34°43' E 135°18'0 0.0
2018-Apr-01 22:59N 34°43' E 135°18'0 0.0
2018-Apr-01 22:29N 34°43' E 135°18'0 0.0
2018-Apr-01 21:59N 34°43' E 135°18'0 0.0
2018-Apr-01 21:28N 34°43' E 135°18'0 0.0
2018-Apr-01 20:55N 34°43' E 135°18'0 0.0
2018-Apr-01 20:28N 34°43' E 135°18'0 0.0
2018-Apr-01 19:58N 34°43' E 135°18'0 0.0
2018-Apr-01 19:28N 34°43' E 135°18'0 0.0
2018-Apr-01 18:58N 34°43' E 135°18'0 0.0
2018-Apr-01 18:28N 34°43' E 135°18'0 0.0
2018-Apr-01 17:58N 34°43' E 135°18'0 0.0
2018-Apr-01 17:29N 34°43' E 135°18'0 0.0
2018-Apr-01 16:52N 34°43' E 135°18'0 0.0
2018-Apr-01 16:28N 34°43' E 135°18'0 0.0
2018-Apr-01 15:55N 34°43' E 135°18'0 0.0
2018-Apr-01 15:28N 34°43' E 135°18'0 0.0
2018-Apr-01 14:59N 34°43' E 135°18'0 0.0
2018-Apr-01 14:28N 34°43' E 135°18'0 0.0
2018-Apr-01 13:58N 34°43' E 135°18'0 0.0
2018-Apr-01 13:28N 34°43' E 135°18'0 0.0
2018-Apr-01 12:55N 34°43' E 135°18'0 0.0
2018-Apr-01 12:28N 34°43' E 135°18'0 0.0
2018-Apr-01 11:58N 34°43' E 135°18'0 0.0
2018-Apr-01 11:28N 34°43' E 135°18'0 0.0
2018-Apr-01 10:58N 34°43' E 135°18'0 0.0
2018-Apr-01 10:28N 34°43' E 135°18'0 0.0
2018-Apr-01 09:58N 34°43' E 135°18'0 0.0
2018-Apr-01 09:28N 34°43' E 135°18'0 0.0
2018-Apr-01 08:58N 34°43' E 135°18'0 0.0
2018-Apr-01 08:28N 34°43' E 135°18'0 0.0
2018-Apr-01 07:58N 34°43' E 135°18'0 0.0
2018-Apr-01 07:28N 34°43' E 135°18'0 0.0
2018-Apr-01 06:58N 34°43' E 135°18'0 0.0
2018-Apr-01 06:28N 34°43' E 135°18'0 0.0
2018-Apr-01 05:58N 34°43' E 135°18'0 0.0
2018-Apr-01 05:25N 34°43' E 135°18'0 0.0
2018-Apr-01 04:58N 34°43' E 135°18'0 0.0
2018-Apr-01 04:28N 34°43' E 135°18'0 0.0
2018-Apr-01 03:58N 34°43' E 135°18'0 0.0
2018-Apr-01 03:29N 34°43' E 135°18'0 0.0
2018-Apr-01 02:58N 34°43' E 135°18'0 0.0
2018-Apr-01 02:28N 34°43' E 135°18'0 0.0
2018-Apr-01 01:58N 34°43' E 135°18'0 0.0
2018-Apr-01 01:28N 34°43' E 135°18'0 0.0
2018-Apr-01 00:58N 34°43' E 135°18'0 0.0
2018-Apr-01 00:28N 34°43' E 135°18'0 0.0
2018-Mar-31 23:58N 34°43' E 135°18'0 0.0
2018-Mar-31 23:28N 34°43' E 135°18'0 0.0
2018-Mar-31 22:58N 34°43' E 135°18'0 0.0
2018-Mar-31 22:28N 34°43' E 135°18'0 0.0
2018-Mar-31 21:58N 34°43' E 135°18'0 0.0
2018-Mar-31 21:28N 34°43' E 135°18'0 0.0
2018-Mar-31 20:58N 34°43' E 135°18'0 0.0
2018-Mar-31 20:28N 34°43' E 135°18'0 0.0
2018-Mar-31 19:58N 34°43' E 135°18'0 0.0
2018-Mar-31 19:28N 34°43' E 135°18'0 0.0
2018-Mar-31 18:58N 34°43' E 135°18'0 0.0
2018-Mar-31 18:28N 34°43' E 135°18'0 0.0
2018-Mar-31 17:58N 34°43' E 135°18'0 0.0
2018-Mar-31 17:28N 34°43' E 135°18'0 0.0
2018-Mar-31 16:58N 34°43' E 135°18'0 0.0
2018-Mar-31 16:28N 34°43' E 135°18'0 0.0
2018-Mar-31 15:58N 34°43' E 135°18'0 0.0
2018-Mar-31 15:28N 34°43' E 135°18'0 0.0
2018-Mar-31 14:58N 34°43' E 135°18'0 0.0
2018-Mar-31 14:28N 34°43' E 135°18'0 0.0
2018-Mar-31 13:58N 34°43' E 135°18'0 0.0
2018-Mar-31 13:28N 34°43' E 135°18'0 0.0
2018-Mar-31 12:55N 34°43' E 135°18'0 0.0
2018-Mar-31 12:28N 34°43' E 135°18'0 0.0
2018-Mar-31 11:58N 34°43' E 135°18'0 0.0
2018-Mar-31 11:28N 34°43' E 135°18'0 0.0
2018-Mar-31 10:58N 34°43' E 135°18'0 0.0
2018-Mar-31 10:28N 34°43' E 135°18'0 0.0
2018-Mar-31 09:58N 34°43' E 135°18'0 0.0
2018-Mar-31 09:28N 34°43' E 135°18'0 0.0
2018-Mar-31 08:58N 34°43' E 135°18'0 0.0
2018-Mar-31 08:28N 34°43' E 135°18'0 0.0
2018-Mar-31 07:58N 34°43' E 135°18'0 0.0
2018-Mar-31 07:28N 34°43' E 135°18'0 0.0
2018-Mar-31 06:58N 34°43' E 135°18'0 0.0
2018-Mar-31 06:28N 34°43' E 135°18'0 0.0
2018-Mar-31 05:58N 34°43' E 135°18'0 0.0
2018-Mar-31 05:28N 34°43' E 135°18'0 0.0
2018-Mar-31 04:58N 34°43' E 135°18'0 0.0
2018-Mar-31 04:28N 34°43' E 135°18'0 0.0
2018-Mar-31 03:58N 34°43' E 135°18'0 0.0
2018-Mar-31 03:28N 34°43' E 135°18'0 0.0
2018-Mar-31 02:58N 34°43' E 135°18'0 0.0
2018-Mar-31 02:28N 34°43' E 135°18'0 0.0
2018-Mar-31 01:55N 34°43' E 135°18'0 0.0
2018-Mar-31 01:28N 34°43' E 135°18'0 0.0
2018-Mar-31 00:58N 34°43' E 135°18'0 0.0
2018-Mar-31 00:28N 34°43' E 135°18'0 0.0
2018-Mar-30 23:58N 34°43' E 135°18'0 0.0
2018-Mar-30 23:28N 34°43' E 135°18'0 0.0
2018-Mar-30 22:58N 34°43' E 135°18'0 0.0
2018-Mar-30 22:28N 34°43' E 135°18'0 0.0
2018-Mar-30 21:58N 34°43' E 135°18'0 0.0
2018-Mar-30 21:28N 34°43' E 135°18'0 0.0
2018-Mar-30 20:58N 34°43' E 135°18'0 0.0
2018-Mar-30 20:28N 34°43' E 135°18'0 0.0
2018-Mar-30 19:58N 34°43' E 135°18'0 0.0
2018-Mar-30 19:28N 34°43' E 135°18'0 0.0
2018-Mar-30 18:58N 34°43' E 135°18'0 0.0
2018-Mar-30 18:28N 34°43' E 135°18'0 0.0
2018-Mar-30 17:58N 34°43' E 135°18'0 0.0
2018-Mar-30 17:28N 34°43' E 135°18'0 0.0
2018-Mar-30 16:58N 34°43' E 135°18'0 0.0
2018-Mar-30 16:28N 34°43' E 135°18'0 0.0
2018-Mar-30 15:58N 34°43' E 135°18'0 0.0
2018-Mar-30 15:28N 34°43' E 135°18'0 0.0
2018-Mar-30 14:58N 34°43' E 135°18'0 0.0
2018-Mar-30 14:28N 34°43' E 135°18'0 0.0
2018-Mar-30 13:55N 34°43' E 135°18'0 0.0
2018-Mar-30 13:28N 34°43' E 135°18'0 0.0
2018-Mar-30 12:58N 34°43' E 135°18'0 0.0
2018-Mar-30 12:28N 34°43' E 135°18'0 0.0
2018-Mar-30 11:58N 34°43' E 135°18'0 0.0
2018-Mar-30 11:28N 34°43' E 135°18'0 0.0
2018-Mar-30 10:58N 34°43' E 135°18'0 0.0
2018-Mar-30 10:28N 34°43' E 135°18'0 0.0
2018-Mar-30 09:58N 34°43' E 135°18'0 0.0
2018-Mar-30 09:28N 34°43' E 135°18'0 0.0
2018-Mar-30 08:58N 34°43' E 135°18'0 0.0
2018-Mar-30 08:28N 34°43' E 135°18'0 0.0
2018-Mar-30 07:58N 34°43' E 135°18'0 0.0
2018-Mar-30 07:28N 34°43' E 135°18'0 0.0
2018-Mar-30 06:58N 34°43' E 135°18'0 0.0
2018-Mar-30 06:28N 34°43' E 135°18'0 0.0
2018-Mar-30 05:58N 34°43' E 135°18'0 0.0
2018-Mar-30 05:28N 34°43' E 135°18'0 0.0
2018-Mar-30 04:58N 34°43' E 135°18'0 0.0
2018-Mar-30 04:28N 34°43' E 135°18'0 0.0
2018-Mar-30 03:55N 34°43' E 135°18'0 0.0
2018-Mar-30 03:28N 34°43' E 135°18'0 0.0
2018-Mar-30 02:58N 34°43' E 135°18'0 0.0
2018-Mar-30 02:28N 34°43' E 135°18'0 0.0
2018-Mar-30 01:58N 34°43' E 135°18'0 0.0
2018-Mar-30 01:28N 34°43' E 135°18'0 0.0
2018-Mar-30 00:58N 34°43' E 135°18'0 0.0
2018-Mar-30 00:28N 34°43' E 135°18'0 0.0
2018-Mar-29 23:58N 34°43' E 135°18'0 0.0
2018-Mar-29 23:28N 34°43' E 135°18'0 0.0
2018-Mar-29 22:58N 34°43' E 135°18'0 0.0
2018-Mar-29 22:28N 34°43' E 135°18'0 0.0
2018-Mar-29 21:58N 34°43' E 135°18'0 0.0
2018-Mar-29 21:28N 34°43' E 135°18'0 0.0
2018-Mar-29 20:58N 34°43' E 135°18'0 0.0
2018-Mar-29 20:28N 34°43' E 135°18'0 0.0
2018-Mar-29 19:58N 34°43' E 135°18'0 0.0
2018-Mar-29 19:28N 34°43' E 135°18'0 0.0
2018-Mar-29 18:58N 34°43' E 135°18'0 0.0
2018-Mar-29 18:28N 34°43' E 135°18'0 0.0
2018-Mar-29 17:58N 34°43' E 135°18'0 0.0
2018-Mar-29 17:28N 34°43' E 135°18'0 0.0
2018-Mar-29 16:58N 34°43' E 135°18'0 0.0
2018-Mar-29 16:25N 34°43' E 135°18'0 0.0
2018-Mar-29 15:58N 34°43' E 135°18'0 0.0
2018-Mar-29 15:28N 34°43' E 135°18'0 0.0
2018-Mar-29 14:58N 34°43' E 135°18'0 0.0
2018-Mar-29 14:28N 34°43' E 135°18'0 0.0
2018-Mar-29 13:58N 34°43' E 135°18'0 0.0
2018-Mar-29 13:28N 34°43' E 135°18'0 0.0
2018-Mar-29 12:58N 34°43' E 135°18'0 0.0
2018-Mar-29 12:25N 34°43' E 135°18'0 0.0
2018-Mar-29 11:58N 34°43' E 135°18'0 0.0
2018-Mar-29 11:28N 34°43' E 135°18'0 0.0
2018-Mar-29 10:58N 34°43' E 135°18'0 0.0
2018-Mar-29 10:28N 34°43' E 135°18'0 0.0
2018-Mar-29 09:58N 34°43' E 135°18'0 0.0
2018-Mar-29 09:28N 34°43' E 135°18'0 0.0
2018-Mar-29 08:58N 34°43' E 135°18'0 0.0
2018-Mar-29 08:28N 34°43' E 135°18'0 0.0
2018-Mar-29 07:58N 34°43' E 135°18'0 0.0
2018-Mar-29 07:28N 34°43' E 135°18'0 0.0
2018-Mar-29 06:58N 34°43' E 135°18'0 0.0
2018-Mar-29 06:28N 34°43' E 135°18'0 0.0
2018-Mar-29 05:58N 34°43' E 135°18'0 0.0
2018-Mar-29 05:28N 34°43' E 135°18'0 0.0
2018-Mar-29 04:58N 34°43' E 135°18'0 0.0
2018-Mar-29 04:28N 34°43' E 135°18'0 0.0
2018-Mar-29 03:58N 34°43' E 135°18'0 0.0
2018-Mar-29 03:28N 34°43' E 135°18'0 0.0
2018-Mar-29 02:58N 34°43' E 135°18'0 0.0
2018-Mar-29 02:28N 34°43' E 135°18'0 0.0
2018-Mar-29 01:58N 34°43' E 135°18'0 0.0
2018-Mar-29 01:28N 34°43' E 135°18'0 0.0
2018-Mar-29 00:58N 34°43' E 135°18'0 0.0
2018-Mar-29 00:28N 34°43' E 135°18'0 0.0
2018-Mar-28 23:58N 34°43' E 135°18'0 0.0
2018-Mar-28 23:28N 34°43' E 135°18'0 0.0
2018-Mar-28 22:58N 34°43' E 135°18'0 0.0
2018-Mar-28 22:28N 34°43' E 135°18'0 0.0
2018-Mar-28 21:58N 34°43' E 135°18'0 0.0
2018-Mar-28 21:28N 34°43' E 135°18'0 0.0
2018-Mar-28 20:55N 34°43' E 135°18'0 0.0
2018-Mar-28 20:28N 34°43' E 135°18'0 0.0
2018-Mar-28 19:58N 34°43' E 135°18'0 0.0
2018-Mar-28 19:28N 34°43' E 135°18'0 0.0
2018-Mar-28 18:58N 34°43' E 135°18'0 0.0
2018-Mar-28 18:28N 34°43' E 135°18'0 0.0
2018-Mar-28 17:58N 34°43' E 135°18'0 0.0
2018-Mar-28 17:28N 34°43' E 135°18'0 0.0
2018-Mar-28 16:58N 34°43' E 135°18'0 0.0
2018-Mar-28 16:28N 34°43' E 135°18'0 0.0
2018-Mar-28 15:58N 34°43' E 135°18'0 0.0
2018-Mar-28 15:28N 34°43' E 135°18'0 0.0
2018-Mar-28 14:58N 34°43' E 135°18'0 0.0
2018-Mar-28 14:28N 34°43' E 135°18'0 0.0
2018-Mar-28 13:58N 34°43' E 135°18'0 0.0
2018-Mar-28 13:28N 34°43' E 135°18'0 0.0
2018-Mar-28 12:58N 34°43' E 135°18'0 0.0
2018-Mar-28 12:25N 34°43' E 135°18'0 0.0
2018-Mar-28 11:58N 34°43' E 135°18'0 0.0
2018-Mar-28 11:28N 34°43' E 135°18'0 0.0
2018-Mar-28 10:58N 34°43' E 135°18'0 0.0
2018-Mar-28 10:28N 34°43' E 135°18'0 0.0
2018-Mar-28 09:58N 34°43' E 135°18'0 0.0
2018-Mar-28 09:28N 34°43' E 135°18'0 0.0
2018-Mar-28 08:58N 34°43' E 135°18'0 0.0
2018-Mar-28 08:25N 34°43' E 135°18'0 0.0
2018-Mar-28 07:58N 34°43' E 135°18'0 0.0
2018-Mar-28 07:28N 34°43' E 135°18'0 0.0
2018-Mar-28 06:58N 34°43' E 135°18'0 0.0
2018-Mar-28 06:28N 34°43' E 135°18'0 0.0
2018-Mar-28 05:58N 34°43' E 135°18'0 0.0
2018-Mar-28 05:28N 34°43' E 135°18'0 0.0
2018-Mar-28 04:58N 34°43' E 135°18'0 0.0
2018-Mar-28 04:28N 34°43' E 135°18'0 0.0
2018-Mar-28 03:55N 34°43' E 135°18'0 0.0
2018-Mar-28 03:28N 34°43' E 135°18'0 0.0
2018-Mar-28 02:58N 34°43' E 135°18'0 0.0
2018-Mar-28 02:28N 34°43' E 135°18'0 0.0
2018-Mar-28 01:58N 34°43' E 135°18'0 0.0
2018-Mar-28 01:25N 34°43' E 135°18'0 0.0
2018-Mar-28 00:55N 34°43' E 135°18'0 0.0
2018-Mar-28 00:28N 34°43' E 135°18'0 0.0
2018-Mar-27 23:58N 34°43' E 135°18'0 0.0
2018-Mar-27 23:28N 34°43' E 135°18'0 0.0
2018-Mar-27 22:58N 34°43' E 135°18'0 0.0
2018-Mar-27 22:28N 34°43' E 135°18'0 0.0
2018-Mar-27 21:58N 34°43' E 135°18'0 0.0
2018-Mar-27 21:28N 34°43' E 135°18'0 0.0
2018-Mar-27 20:58N 34°43' E 135°18'0 0.0
2018-Mar-27 20:28N 34°43' E 135°18'0 0.0
2018-Mar-27 19:58N 34°43' E 135°18'0 0.0
2018-Mar-27 19:28N 34°43' E 135°18'0 0.0
2018-Mar-27 18:58N 34°43' E 135°18'0 0.0
2018-Mar-27 18:28N 34°43' E 135°18'0 0.0
2018-Mar-27 17:58N 34°43' E 135°18'0 0.0
2018-Mar-27 17:28N 34°43' E 135°18'0 0.0
2018-Mar-27 16:58N 34°43' E 135°18'0 0.0
2018-Mar-27 16:28N 34°43' E 135°18'0 0.0
2018-Mar-27 15:58N 34°43' E 135°18'0 0.0
2018-Mar-27 15:28N 34°43' E 135°18'0 0.0
2018-Mar-27 14:58N 34°43' E 135°18'0 0.0
2018-Mar-27 14:28N 34°43' E 135°18'0 0.0
2018-Mar-27 13:58N 34°43' E 135°18'0 0.0
2018-Mar-27 13:28N 34°43' E 135°18'0 0.0
2018-Mar-27 12:58N 34°43' E 135°18'0 0.0
2018-Mar-27 12:28N 34°43' E 135°18'0 0.0
2018-Mar-27 11:58N 34°43' E 135°18'0 0.0
2018-Mar-27 11:28N 34°43' E 135°18'0 0.0
2018-Mar-27 10:58N 34°43' E 135°18'0 0.0
2018-Mar-27 10:28N 34°43' E 135°18'0 0.0
2018-Mar-27 09:55N 34°43' E 135°18'0 0.0
2018-Mar-27 09:28N 34°43' E 135°18'0 0.0
2018-Mar-27 08:58N 34°43' E 135°18'0 0.0
2018-Mar-27 08:28N 34°43' E 135°18'0 0.0
2018-Mar-27 07:58N 34°43' E 135°18'0 0.0
2018-Mar-27 07:28N 34°43' E 135°18'0 0.0
2018-Mar-27 06:58N 34°43' E 135°18'0 0.0
2018-Mar-27 06:25N 34°43' E 135°18'0 0.0
2018-Mar-27 05:58N 34°43' E 135°18'0 0.0
2018-Mar-27 05:28N 34°43' E 135°18'0 0.0
2018-Mar-27 04:58N 34°43' E 135°18'0 0.0
2018-Mar-27 04:28N 34°43' E 135°18'0 0.0
2018-Mar-27 03:58N 34°43' E 135°18'0 0.0
2018-Mar-27 03:28N 34°43' E 135°18'0 0.0
2018-Mar-27 02:58N 34°43' E 135°18'0 0.0
2018-Mar-27 02:28N 34°43' E 135°18'0 0.0
2018-Mar-27 01:58N 34°43' E 135°18'0 0.0
2018-Mar-27 01:28N 34°43' E 135°18'0 0.0
2018-Mar-27 00:58N 34°43' E 135°18'0 0.0
2018-Mar-27 00:28N 34°43' E 135°18'0 0.0
2018-Mar-26 23:58N 34°43' E 135°18'0 0.0
2018-Mar-26 23:28N 34°43' E 135°18'0 0.0
2018-Mar-26 22:58N 34°43' E 135°18'0 0.0
2018-Mar-26 22:28N 34°43' E 135°18'0 0.0
2018-Mar-26 21:58N 34°43' E 135°18'0 0.0
2018-Mar-26 21:28N 34°43' E 135°18'0 0.0
2018-Mar-26 20:58N 34°43' E 135°18'0 0.0
2018-Mar-26 20:28N 34°43' E 135°18'0 0.0
2018-Mar-26 19:58N 34°43' E 135°18'0 0.0
2018-Mar-26 19:28N 34°43' E 135°18'0 0.0
2018-Mar-26 18:58N 34°43' E 135°18'0 0.0
2018-Mar-26 18:28N 34°43' E 135°18'0 0.0
2018-Mar-26 17:58N 34°43' E 135°18'0 0.0
2018-Mar-26 17:28N 34°43' E 135°18'0 0.0
2018-Mar-26 16:58N 34°43' E 135°18'0 0.0
2018-Mar-26 16:28N 34°43' E 135°18'0 0.0
2018-Mar-26 15:58N 34°43' E 135°18'0 0.0
2018-Mar-26 15:28N 34°43' E 135°18'0 0.0
2018-Mar-26 14:58N 34°43' E 135°18'0 0.0
2018-Mar-26 14:28N 34°43' E 135°18'0 0.0
2018-Mar-26 13:58N 34°43' E 135°18'0 0.0
2018-Mar-26 13:28N 34°43' E 135°18'0 0.0
2018-Mar-26 12:58N 34°43' E 135°18'0 0.0
2018-Mar-26 12:28N 34°43' E 135°18'0 0.0
2018-Mar-26 11:58N 34°43' E 135°18'0 0.0
2018-Mar-26 11:28N 34°43' E 135°18'0 0.0
2018-Mar-26 10:58N 34°43' E 135°18'0 0.0
2018-Mar-26 10:28N 34°43' E 135°18'0 0.0
2018-Mar-26 09:58N 34°43' E 135°18'0 0.0
2018-Mar-26 09:28N 34°43' E 135°18'0 0.0
2018-Mar-26 08:58N 34°43' E 135°18'0 0.0
2018-Mar-26 08:28N 34°43' E 135°18'0 0.0
2018-Mar-26 07:58N 34°43' E 135°18'0 0.0
2018-Mar-26 07:28N 34°43' E 135°18'0 0.0
2018-Mar-26 06:58N 34°43' E 135°18'0 0.0
2018-Mar-26 06:28N 34°43' E 135°18'0 0.0
2018-Mar-26 05:58N 34°43' E 135°18'0 0.0
2018-Mar-26 05:28N 34°43' E 135°18'0 0.0
2018-Mar-26 04:58N 34°43' E 135°18'0 0.0
2018-Mar-26 04:28N 34°43' E 135°18'0 0.0
2018-Mar-26 03:58N 34°43' E 135°18'0 0.0
2018-Mar-26 03:28N 34°43' E 135°18'0 0.0
2018-Mar-26 02:58N 34°43' E 135°18'0 0.0
2018-Mar-26 02:28N 34°43' E 135°18'0 0.0
2018-Mar-26 01:58N 34°43' E 135°18'0 0.0
2018-Mar-26 01:28N 34°43' E 135°18'0 0.0
2018-Mar-26 00:55N 34°43' E 135°18'0 0.0
2018-Mar-26 00:28N 34°43' E 135°18'0 0.0
2018-Mar-25 23:58N 34°43' E 135°18'0 0.0
2018-Mar-25 23:28N 34°43' E 135°18'0 0.0
2018-Mar-25 22:58N 34°43' E 135°18'0 0.0
2018-Mar-25 22:28N 34°43' E 135°18'0 0.0
2018-Mar-25 21:58N 34°43' E 135°18'0 0.0
2018-Mar-25 21:28N 34°43' E 135°18'0 0.0
2018-Mar-25 20:58N 34°43' E 135°18'0 0.0
2018-Mar-25 20:28N 34°43' E 135°18'0 0.0
2018-Mar-25 19:58N 34°43' E 135°18'0 0.0
2018-Mar-25 19:28N 34°43' E 135°18'0 0.0
2018-Mar-25 18:58N 34°43' E 135°18'0 0.0
2018-Mar-25 18:28N 34°43' E 135°18'0 0.0
2018-Mar-25 17:58N 34°43' E 135°18'0 0.0
2018-Mar-25 17:28N 34°43' E 135°18'0 0.0
2018-Mar-25 16:58N 34°43' E 135°18'0 0.0
2018-Mar-25 16:28N 34°43' E 135°18'0 0.0
2018-Mar-25 15:58N 34°43' E 135°18'0 0.0
2018-Mar-25 15:28N 34°43' E 135°18'0 0.0
2018-Mar-25 14:58N 34°43' E 135°18'0 0.0
2018-Mar-25 14:28N 34°43' E 135°18'0 0.0
2018-Mar-25 13:58N 34°43' E 135°18'0 0.0
2018-Mar-25 13:28N 34°43' E 135°18'0 0.0
2018-Mar-25 12:58N 34°43' E 135°18'0 0.0
2018-Mar-25 12:28N 34°43' E 135°18'0 0.0
2018-Mar-25 11:58N 34°43' E 135°18'0 0.0
2018-Mar-25 11:28N 34°43' E 135°18'0 0.0
2018-Mar-25 10:58N 34°43' E 135°18'0 0.0
2018-Mar-25 10:28N 34°43' E 135°18'0 0.0
2018-Mar-25 09:58N 34°43' E 135°18'0 0.0
2018-Mar-25 09:28N 34°43' E 135°18'0 0.0
2018-Mar-25 08:58N 34°43' E 135°18'  

Dump ship's entire track history